sensor_id;sensor_type;location;lat;lon;timestamp;temperature;humidity
15819;DHT22;8010;53.986;12.106;2023-02-28T00:00:46;-0.10;99.90
15819;DHT22;8010;53.986;12.106;2023-02-28T00:03:11;-0.10;99.90
15819;DHT22;8010;53.986;12.106;2023-02-28T00:05:37;-0.10;99.90
15819;DHT22;8010;53.986;12.106;2023-02-28T00:08:03;-0.10;99.90
15819;DHT22;8010;53.986;12.106;2023-02-28T00:10:29;-0.10;99.90
15819;DHT22;8010;53.986;12.106;2023-02-28T00:13:01;-0.10;99.90
15819;DHT22;8010;53.986;12.106;2023-02-28T00:15:27;-0.10;99.90
15819;DHT22;8010;53.986;12.106;2023-02-28T00:17:52;-0.10;99.90
15819;DHT22;8010;53.986;12.106;2023-02-28T00:20:18;-0.20;99.90
15819;DHT22;8010;53.986;12.106;2023-02-28T00:22:47;-0.20;99.90
15819;DHT22;8010;53.986;12.106;2023-02-28T00:25:15;-0.20;99.90
15819;DHT22;8010;53.986;12.106;2023-02-28T00:27:41;-0.20;99.90
15819;DHT22;8010;53.986;12.106;2023-02-28T00:30:10;-0.20;99.90
15819;DHT22;8010;53.986;12.106;2023-02-28T00:32:37;-0.20;99.90
15819;DHT22;8010;53.986;12.106;2023-02-28T00:35:02;-0.20;99.90
15819;DHT22;8010;53.986;12.106;2023-02-28T00:37:28;-0.20;99.90
15819;DHT22;8010;53.986;12.106;2023-02-28T00:39:54;-0.30;99.90
15819;DHT22;8010;53.986;12.106;2023-02-28T00:42:19;-0.40;99.90
15819;DHT22;8010;53.986;12.106;2023-02-28T00:44:45;-0.40;99.90
15819;DHT22;8010;53.986;12.106;2023-02-28T00:47:10;-0.50;99.90
15819;DHT22;8010;53.986;12.106;2023-02-28T00:49:36;-0.50;99.90
15819;DHT22;8010;53.986;12.106;2023-02-28T00:52:02;-0.50;99.90
15819;DHT22;8010;53.986;12.106;2023-02-28T00:54:27;-0.50;99.90
15819;DHT22;8010;53.986;12.106;2023-02-28T00:56:53;-0.50;99.90
15819;DHT22;8010;53.986;12.106;2023-02-28T00:59:18;-0.50;99.90
15819;DHT22;8010;53.986;12.106;2023-02-28T01:01:46;-0.50;99.90
15819;DHT22;8010;53.986;12.106;2023-02-28T01:04:12;-0.50;99.90
15819;DHT22;8010;53.986;12.106;2023-02-28T01:06:38;-0.60;99.90
15819;DHT22;8010;53.986;12.106;2023-02-28T01:09:06;-0.70;99.90
15819;DHT22;8010;53.986;12.106;2023-02-28T01:11:32;-0.80;99.90
15819;DHT22;8010;53.986;12.106;2023-02-28T01:13:58;-0.70;99.90
15819;DHT22;8010;53.986;12.106;2023-02-28T01:16:23;-0.70;99.90
15819;DHT22;8010;53.986;12.106;2023-02-28T01:18:49;-0.70;99.90
15819;DHT22;8010;53.986;12.106;2023-02-28T01:21:17;-0.70;99.90
15819;DHT22;8010;53.986;12.106;2023-02-28T01:23:43;-0.70;99.90
15819;DHT22;8010;53.986;12.106;2023-02-28T01:26:13;-0.70;99.90
15819;DHT22;8010;53.986;12.106;2023-02-28T01:28:39;-0.70;99.90
15819;DHT22;8010;53.986;12.106;2023-02-28T01:31:05;-0.70;99.90
15819;DHT22;8010;53.986;12.106;2023-02-28T01:33:31;-0.70;99.90
15819;DHT22;8010;53.986;12.106;2023-02-28T01:36:01;-0.70;99.90
15819;DHT22;8010;53.986;12.106;2023-02-28T01:38:27;-0.70;99.90
15819;DHT22;8010;53.986;12.106;2023-02-28T01:40:53;-0.70;99.90
15819;DHT22;8010;53.986;12.106;2023-02-28T01:45:51;-0.60;99.90
15819;DHT22;8010;53.986;12.106;2023-02-28T01:48:17;-0.60;99.90
15819;DHT22;8010;53.986;12.106;2023-02-28T01:50:45;-0.70;99.90
15819;DHT22;8010;53.986;12.106;2023-02-28T01:53:16;-0.70;99.90
15819;DHT22;8010;53.986;12.106;2023-02-28T01:55:46;-0.70;99.90
15819;DHT22;8010;53.986;12.106;2023-02-28T01:58:13;-0.70;99.90
15819;DHT22;8010;53.986;12.106;2023-02-28T02:00:38;-0.70;99.90
15819;DHT22;8010;53.986;12.106;2023-02-28T02:03:08;-0.70;99.90
15819;DHT22;8010;53.986;12.106;2023-02-28T02:05:36;-0.60;99.90
15819;DHT22;8010;53.986;12.106;2023-02-28T02:08:06;-0.60;99.90
15819;DHT22;8010;53.986;12.106;2023-02-28T02:10:36;-0.60;99.90
15819;DHT22;8010;53.986;12.106;2023-02-28T02:13:23;-0.70;99.90
15819;DHT22;8010;53.986;12.106;2023-02-28T02:16:41;-0.80;99.90
15819;DHT22;8010;53.986;12.106;2023-02-28T02:27:59;-1.10;99.90
15819;DHT22;8010;53.986;12.106;2023-02-28T02:30:37;-1.10;99.90
15819;DHT22;8010;53.986;12.106;2023-02-28T02:36:06;-1.20;99.90
15819;DHT22;8010;53.986;12.106;2023-02-28T02:38:47;-1.20;99.90
15819;DHT22;8010;53.986;12.106;2023-02-28T02:41:36;-1.10;99.90
15819;DHT22;8010;53.986;12.106;2023-02-28T02:44:20;-1.10;99.90
15819;DHT22;8010;53.986;12.106;2023-02-28T02:46:48;-1.10;99.90
15819;DHT22;8010;53.986;12.106;2023-02-28T02:49:28;-1.10;99.90
15819;DHT22;8010;53.986;12.106;2023-02-28T02:51:58;-1.10;99.90
15819;DHT22;8010;53.986;12.106;2023-02-28T02:54:36;-1.10;99.90
15819;DHT22;8010;53.986;12.106;2023-02-28T02:57:05;-1.10;99.90
15819;DHT22;8010;53.986;12.106;2023-02-28T02:59:36;-1.20;99.90
15819;DHT22;8010;53.986;12.106;2023-02-28T03:02:06;-1.30;99.90
15819;DHT22;8010;53.986;12.106;2023-02-28T03:04:43;-0.20;99.90
15819;DHT22;8010;53.986;12.106;2023-02-28T03:07:10;-1.40;99.90
15819;DHT22;8010;53.986;12.106;2023-02-28T03:09:36;-1.20;99.90
15819;DHT22;8010;53.986;12.106;2023-02-28T03:12:02;-0.20;99.90
15819;DHT22;8010;53.986;12.106;2023-02-28T03:15:16;-1.30;99.90
15819;DHT22;8010;53.986;12.106;2023-02-28T03:20:27;-1.40;99.90
15819;DHT22;8010;53.986;12.106;2023-02-28T03:23:23;-1.50;99.90
15819;DHT22;8010;53.986;12.106;2023-02-28T03:25:59;-1.50;99.90
15819;DHT22;8010;53.986;12.106;2023-02-28T03:29:04;-0.30;99.90
15819;DHT22;8010;53.986;12.106;2023-02-28T03:31:35;-1.60;99.90
15819;DHT22;8010;53.986;12.106;2023-02-28T03:34:15;-1.50;99.90
15819;DHT22;8010;53.986;12.106;2023-02-28T03:36:52;-1.50;99.90
15819;DHT22;8010;53.986;12.106;2023-02-28T03:39:25;-1.40;99.90
15819;DHT22;8010;53.986;12.106;2023-02-28T03:41:59;-1.40;99.90
15819;DHT22;8010;53.986;12.106;2023-02-28T03:44:30;-1.40;99.90
15819;DHT22;8010;53.986;12.106;2023-02-28T03:49:45;-1.40;99.90
15819;DHT22;8010;53.986;12.106;2023-02-28T03:52:13;-1.40;99.90
15819;DHT22;8010;53.986;12.106;2023-02-28T03:54:45;-1.40;99.90
15819;DHT22;8010;53.986;12.106;2023-02-28T03:57:20;-1.40;99.90
15819;DHT22;8010;53.986;12.106;2023-02-28T03:59:56;0.10;99.90
15819;DHT22;8010;53.986;12.106;2023-02-28T04:02:24;-1.50;99.90
15819;DHT22;8010;53.986;12.106;2023-02-28T04:04:50;-1.40;99.90
15819;DHT22;8010;53.986;12.106;2023-02-28T04:07:17;-1.40;99.90
15819;DHT22;8010;53.986;12.106;2023-02-28T04:09:43;-1.40;99.90
15819;DHT22;8010;53.986;12.106;2023-02-28T04:12:08;-1.40;99.90
15819;DHT22;8010;53.986;12.106;2023-02-28T04:14:34;-1.40;99.90
15819;DHT22;8010;53.986;12.106;2023-02-28T04:17:00;-1.60;99.90
15819;DHT22;8010;53.986;12.106;2023-02-28T04:19:25;-1.60;99.90
15819;DHT22;8010;53.986;12.106;2023-02-28T04:21:52;-1.40;99.90
15819;DHT22;8010;53.986;12.106;2023-02-28T04:24:27;-1.70;99.90
15819;DHT22;8010;53.986;12.106;2023-02-28T04:26:55;-1.30;99.90
15819;DHT22;8010;53.986;12.106;2023-02-28T04:31:51;-1.70;99.90
15819;DHT22;8010;53.986;12.106;2023-02-28T04:34:18;-1.60;99.90
15819;DHT22;8010;53.986;12.106;2023-02-28T04:36:44;-1.70;99.90
15819;DHT22;8010;53.986;12.106;2023-02-28T04:39:11;-1.70;99.90
15819;DHT22;8010;53.986;12.106;2023-02-28T04:41:37;-1.70;99.90
15819;DHT22;8010;53.986;12.106;2023-02-28T04:44:03;-1.70;99.90
15819;DHT22;8010;53.986;12.106;2023-02-28T04:46:28;-1.70;99.90
15819;DHT22;8010;53.986;12.106;2023-02-28T04:48:55;-1.70;99.90
15819;DHT22;8010;53.986;12.106;2023-02-28T04:51:21;-1.70;99.90
15819;DHT22;8010;53.986;12.106;2023-02-28T04:53:47;-1.70;99.90
15819;DHT22;8010;53.986;12.106;2023-02-28T04:56:14;-1.80;99.90
15819;DHT22;8010;53.986;12.106;2023-02-28T04:58:40;-1.60;99.90
15819;DHT22;8010;53.986;12.106;2023-02-28T05:03:42;-1.80;99.90
15819;DHT22;8010;53.986;12.106;2023-02-28T05:06:09;-1.80;99.90
15819;DHT22;8010;53.986;12.106;2023-02-28T05:08:35;-1.90;99.90
15819;DHT22;8010;53.986;12.106;2023-02-28T05:11:01;-2.00;99.90
15819;DHT22;8010;53.986;12.106;2023-02-28T05:13:27;-2.20;99.90
15819;DHT22;8010;53.986;12.106;2023-02-28T05:15:53;-2.20;99.90
15819;DHT22;8010;53.986;12.106;2023-02-28T05:18:19;-2.20;99.90
15819;DHT22;8010;53.986;12.106;2023-02-28T05:20:44;-1.40;99.90
15819;DHT22;8010;53.986;12.106;2023-02-28T05:23:11;-1.10;99.90
15819;DHT22;8010;53.986;12.106;2023-02-28T05:25:38;-2.10;99.90
15819;DHT22;8010;53.986;12.106;2023-02-28T05:28:04;-2.10;99.90
15819;DHT22;8010;53.986;12.106;2023-02-28T05:30:29;-2.10;99.90
15819;DHT22;8010;53.986;12.106;2023-02-28T05:32:55;-2.00;99.90
15819;DHT22;8010;53.986;12.106;2023-02-28T05:35:21;-2.10;99.90
15819;DHT22;8010;53.986;12.106;2023-02-28T05:37:46;-2.10;99.90
15819;DHT22;8010;53.986;12.106;2023-02-28T05:40:12;-2.10;99.90
15819;DHT22;8010;53.986;12.106;2023-02-28T05:42:38;-2.20;99.90
15819;DHT22;8010;53.986;12.106;2023-02-28T05:45:05;-1.80;99.90
15819;DHT22;8010;53.986;12.106;2023-02-28T05:47:31;-2.30;99.90
15819;DHT22;8010;53.986;12.106;2023-02-28T05:49:56;-0.60;99.90
15819;DHT22;8010;53.986;12.106;2023-02-28T05:52:22;-1.30;99.90
15819;DHT22;8010;53.986;12.106;2023-02-28T05:54:48;-2.30;99.90
15819;DHT22;8010;53.986;12.106;2023-02-28T05:57:13;-2.30;99.90
15819;DHT22;8010;53.986;12.106;2023-02-28T05:59:39;-2.30;99.90
15819;DHT22;8010;53.986;12.106;2023-02-28T06:02:06;-2.30;99.90
15819;DHT22;8010;53.986;12.106;2023-02-28T06:04:35;-2.40;99.90
15819;DHT22;8010;53.986;12.106;2023-02-28T06:07:01;-2.50;99.90
15819;DHT22;8010;53.986;12.106;2023-02-28T06:09:27;-1.10;99.90
15819;DHT22;8010;53.986;12.106;2023-02-28T06:11:52;-2.50;99.90
15819;DHT22;8010;53.986;12.106;2023-02-28T06:14:19;-2.50;99.90
15819;DHT22;8010;53.986;12.106;2023-02-28T06:16:45;-2.40;99.90
15819;DHT22;8010;53.986;12.106;2023-02-28T06:19:11;-2.50;99.90
15819;DHT22;8010;53.986;12.106;2023-02-28T06:21:37;-2.50;99.90
15819;DHT22;8010;53.986;12.106;2023-02-28T06:24:03;-2.60;99.90
15819;DHT22;8010;53.986;12.106;2023-02-28T06:26:30;-2.60;99.90
15819;DHT22;8010;53.986;12.106;2023-02-28T06:28:55;-2.60;99.90
15819;DHT22;8010;53.986;12.106;2023-02-28T06:31:21;-2.60;99.90
15819;DHT22;8010;53.986;12.106;2023-02-28T06:33:47;-2.50;99.90
15819;DHT22;8010;53.986;12.106;2023-02-28T06:36:14;-2.50;99.90
15819;DHT22;8010;53.986;12.106;2023-02-28T06:38:40;-2.40;99.90
15819;DHT22;8010;53.986;12.106;2023-02-28T06:41:07;-2.50;99.90
15819;DHT22;8010;53.986;12.106;2023-02-28T06:43:39;-1.80;99.90
15819;DHT22;8010;53.986;12.106;2023-02-28T06:46:07;-2.20;99.90
15819;DHT22;8010;53.986;12.106;2023-02-28T06:48:33;-2.10;99.90
15819;DHT22;8010;53.986;12.106;2023-02-28T06:51:17;-2.00;99.90
15819;DHT22;8010;53.986;12.106;2023-02-28T06:53:43;-1.90;99.90
15819;DHT22;8010;53.986;12.106;2023-02-28T06:56:14;-1.90;99.90
15819;DHT22;8010;53.986;12.106;2023-02-28T06:58:40;-1.80;99.90
15819;DHT22;8010;53.986;12.106;2023-02-28T07:01:07;-1.70;99.90
15819;DHT22;8010;53.986;12.106;2023-02-28T07:03:34;-1.70;99.90
15819;DHT22;8010;53.986;12.106;2023-02-28T07:06:00;-1.70;99.90
15819;DHT22;8010;53.986;12.106;2023-02-28T07:08:26;-1.60;99.90
15819;DHT22;8010;53.986;12.106;2023-02-28T07:10:56;-0.90;99.90
15819;DHT22;8010;53.986;12.106;2023-02-28T07:13:22;-1.50;99.90
15819;DHT22;8010;53.986;12.106;2023-02-28T07:15:58;-0.80;99.90
15819;DHT22;8010;53.986;12.106;2023-02-28T07:18:24;-1.40;99.90
15819;DHT22;8010;53.986;12.106;2023-02-28T07:20:50;-1.40;99.90
15819;DHT22;8010;53.986;12.106;2023-02-28T07:23:16;-1.40;99.90
15819;DHT22;8010;53.986;12.106;2023-02-28T07:25:42;-1.30;99.90
15819;DHT22;8010;53.986;12.106;2023-02-28T07:28:07;-0.70;99.90
15819;DHT22;8010;53.986;12.106;2023-02-28T07:30:33;-1.10;99.90
15819;DHT22;8010;53.986;12.106;2023-02-28T07:32:59;-0.30;99.90
15819;DHT22;8010;53.986;12.106;2023-02-28T07:35:24;-1.10;99.90
15819;DHT22;8010;53.986;12.106;2023-02-28T07:37:50;-1.00;99.90
15819;DHT22;8010;53.986;12.106;2023-02-28T07:40:15;-0.90;99.90
15819;DHT22;8010;53.986;12.106;2023-02-28T07:42:43;-0.80;99.90
15819;DHT22;8010;53.986;12.106;2023-02-28T07:45:10;-0.70;99.90
15819;DHT22;8010;53.986;12.106;2023-02-28T07:47:38;-0.60;99.90
15819;DHT22;8010;53.986;12.106;2023-02-28T07:50:05;-0.50;99.90
15819;DHT22;8010;53.986;12.106;2023-02-28T07:52:30;-0.30;99.90
15819;DHT22;8010;53.986;12.106;2023-02-28T07:54:56;-0.20;99.90
15819;DHT22;8010;53.986;12.106;2023-02-28T07:57:22;1.30;99.90
15819;DHT22;8010;53.986;12.106;2023-02-28T07:59:47;1.70;99.90
15819;DHT22;8010;53.986;12.106;2023-02-28T08:02:17;1.30;99.90
15819;DHT22;8010;53.986;12.106;2023-02-28T08:04:43;1.10;99.90
15819;DHT22;8010;53.986;12.106;2023-02-28T08:07:09;0.80;99.90
15819;DHT22;8010;53.986;12.106;2023-02-28T08:09:42;1.50;99.90
15819;DHT22;8010;53.986;12.106;2023-02-28T08:12:08;0.70;99.90
15819;DHT22;8010;53.986;12.106;2023-02-28T08:14:34;0.80;99.90
15819;DHT22;8010;53.986;12.106;2023-02-28T08:17:00;1.00;99.90
15819;DHT22;8010;53.986;12.106;2023-02-28T08:19:26;2.00;99.90
15819;DHT22;8010;53.986;12.106;2023-02-28T08:21:52;1.50;99.90
15819;DHT22;8010;53.986;12.106;2023-02-28T08:24:17;1.30;99.90
15819;DHT22;8010;53.986;12.106;2023-02-28T08:26:43;1.40;99.90
15819;DHT22;8010;53.986;12.106;2023-02-28T08:29:08;1.60;99.90
15819;DHT22;8010;53.986;12.106;2023-02-28T08:31:34;2.30;99.90
15819;DHT22;8010;53.986;12.106;2023-02-28T08:34:10;2.60;99.90
15819;DHT22;8010;53.986;12.106;2023-02-28T08:36:36;2.00;99.90
15819;DHT22;8010;53.986;12.106;2023-02-28T08:39:03;2.40;99.90
15819;DHT22;8010;53.986;12.106;2023-02-28T08:41:28;3.50;99.90
15819;DHT22;8010;53.986;12.106;2023-02-28T08:43:54;2.40;99.90
15819;DHT22;8010;53.986;12.106;2023-02-28T08:46:20;3.30;99.90
15819;DHT22;8010;53.986;12.106;2023-02-28T08:48:45;2.60;99.90
15819;DHT22;8010;53.986;12.106;2023-02-28T08:51:14;2.80;99.90
15819;DHT22;8010;53.986;12.106;2023-02-28T08:53:42;2.90;99.90
15819;DHT22;8010;53.986;12.106;2023-02-28T08:56:11;3.10;99.90
15819;DHT22;8010;53.986;12.106;2023-02-28T08:58:37;3.30;99.90
15819;DHT22;8010;53.986;12.106;2023-02-28T09:01:20;3.30;99.90
15819;DHT22;8010;53.986;12.106;2023-02-28T09:03:47;3.40;99.90
15819;DHT22;8010;53.986;12.106;2023-02-28T09:06:14;3.40;99.90
15819;DHT22;8010;53.986;12.106;2023-02-28T09:08:40;3.50;99.90
15819;DHT22;8010;53.986;12.106;2023-02-28T09:11:06;3.70;99.90
15819;DHT22;8010;53.986;12.106;2023-02-28T09:13:32;3.70;99.90
15819;DHT22;8010;53.986;12.106;2023-02-28T09:15:59;3.90;99.90
15819;DHT22;8010;53.986;12.106;2023-02-28T09:18:26;4.00;99.90
15819;DHT22;8010;53.986;12.106;2023-02-28T09:20:51;4.20;99.90
15819;DHT22;8010;53.986;12.106;2023-02-28T09:23:17;4.30;99.90
15819;DHT22;8010;53.986;12.106;2023-02-28T09:26:01;4.30;99.90
15819;DHT22;8010;53.986;12.106;2023-02-28T09:28:27;4.40;99.90
15819;DHT22;8010;53.986;12.106;2023-02-28T09:30:53;4.60;99.90
15819;DHT22;8010;53.986;12.106;2023-02-28T09:33:20;4.80;99.90
15819;DHT22;8010;53.986;12.106;2023-02-28T09:35:50;4.90;99.90
15819;DHT22;8010;53.986;12.106;2023-02-28T09:38:16;5.10;99.90
15819;DHT22;8010;53.986;12.106;2023-02-28T09:40:53;5.40;99.90
15819;DHT22;8010;53.986;12.106;2023-02-28T09:43:23;5.60;99.90
15819;DHT22;8010;53.986;12.106;2023-02-28T09:45:54;5.70;99.90
15819;DHT22;8010;53.986;12.106;2023-02-28T09:48:32;5.80;99.90
15819;DHT22;8010;53.986;12.106;2023-02-28T09:53:39;6.00;99.90
15819;DHT22;8010;53.986;12.106;2023-02-28T09:56:11;6.20;99.90
15819;DHT22;8010;53.986;12.106;2023-02-28T09:58:49;6.40;99.90
15819;DHT22;8010;53.986;12.106;2023-02-28T10:01:37;6.60;99.90
15819;DHT22;8010;53.986;12.106;2023-02-28T10:06:49;7.00;99.90
15819;DHT22;8010;53.986;12.106;2023-02-28T10:09:27;7.20;99.90
15819;DHT22;8010;53.986;12.106;2023-02-28T10:12:00;7.20;99.90
15819;DHT22;8010;53.986;12.106;2023-02-28T10:14:29;7.30;99.90
15819;DHT22;8010;53.986;12.106;2023-02-28T10:17:02;7.40;99.90
15819;DHT22;8010;53.986;12.106;2023-02-28T10:19:38;7.40;99.90
15819;DHT22;8010;53.986;12.106;2023-02-28T10:22:12;7.40;99.90
15819;DHT22;8010;53.986;12.106;2023-02-28T10:24:42;7.60;99.90
15819;DHT22;8010;53.986;12.106;2023-02-28T10:27:17;7.70;99.90
15819;DHT22;8010;53.986;12.106;2023-02-28T10:29:46;7.70;99.90
15819;DHT22;8010;53.986;12.106;2023-02-28T10:32:16;7.90;99.90
15819;DHT22;8010;53.986;12.106;2023-02-28T10:34:42;7.90;99.90
15819;DHT22;8010;53.986;12.106;2023-02-28T10:37:07;8.00;99.90
15819;DHT22;8010;53.986;12.106;2023-02-28T10:39:45;8.10;99.90
15819;DHT22;8010;53.986;12.106;2023-02-28T10:42:29;8.20;99.90
15819;DHT22;8010;53.986;12.106;2023-02-28T10:45:11;8.40;99.90
15819;DHT22;8010;53.986;12.106;2023-02-28T10:50:41;8.30;99.90
15819;DHT22;8010;53.986;12.106;2023-02-28T10:53:37;8.40;99.90
15819;DHT22;8010;53.986;12.106;2023-02-28T10:56:01;8.30;99.90
15819;DHT22;8010;53.986;12.106;2023-02-28T11:01:45;8.50;99.90
15819;DHT22;8010;53.986;12.106;2023-02-28T11:06:57;8.50;99.90
15819;DHT22;8010;53.986;12.106;2023-02-28T11:09:30;8.60;99.90
15819;DHT22;8010;53.986;12.106;2023-02-28T11:11:59;8.80;99.90
15819;DHT22;8010;53.986;12.106;2023-02-28T11:14:43;9.00;99.90
15819;DHT22;8010;53.986;12.106;2023-02-28T11:17:21;8.90;99.90
15819;DHT22;8010;53.986;12.106;2023-02-28T11:19:51;9.00;99.90
15819;DHT22;8010;53.986;12.106;2023-02-28T11:22:20;9.20;99.90
15819;DHT22;8010;53.986;12.106;2023-02-28T11:24:50;9.40;99.90
15819;DHT22;8010;53.986;12.106;2023-02-28T11:29:51;9.20;99.90
15819;DHT22;8010;53.986;12.106;2023-02-28T11:32:20;9.30;99.90
15819;DHT22;8010;53.986;12.106;2023-02-28T11:35:00;9.50;99.90
15819;DHT22;8010;53.986;12.106;2023-02-28T11:37:28;9.70;99.90
15819;DHT22;8010;53.986;12.106;2023-02-28T11:39:55;9.90;99.90
15819;DHT22;8010;53.986;12.106;2023-02-28T11:42:54;10.10;99.90
15819;DHT22;8010;53.986;12.106;2023-02-28T11:45:43;10.40;99.90
15819;DHT22;8010;53.986;12.106;2023-02-28T11:48:23;10.50;99.90
15819;DHT22;8010;53.986;12.106;2023-02-28T11:51:13;10.60;99.90
15819;DHT22;8010;53.986;12.106;2023-02-28T11:53:50;10.80;99.90
15819;DHT22;8010;53.986;12.106;2023-02-28T11:56:36;10.80;99.90
15819;DHT22;8010;53.986;12.106;2023-02-28T11:59:10;10.80;99.90
15819;DHT22;8010;53.986;12.106;2023-02-28T12:01:58;10.90;99.90
15819;DHT22;8010;53.986;12.106;2023-02-28T12:05:06;10.90;99.90
15819;DHT22;8010;53.986;12.106;2023-02-28T12:10:37;10.90;99.90
15819;DHT22;8010;53.986;12.106;2023-02-28T12:13:26;10.80;99.90
15819;DHT22;8010;53.986;12.106;2023-02-28T12:15:57;10.60;99.90
15819;DHT22;8010;53.986;12.106;2023-02-28T12:21:21;10.70;99.90
15819;DHT22;8010;53.986;12.106;2023-02-28T12:29:42;11.20;99.90
15819;DHT22;8010;53.986;12.106;2023-02-28T12:32:13;11.50;99.90
15819;DHT22;8010;53.986;12.106;2023-02-28T12:34:44;11.40;99.90
15819;DHT22;8010;53.986;12.106;2023-02-28T12:37:22;11.40;99.90
15819;DHT22;8010;53.986;12.106;2023-02-28T12:40:01;11.30;99.90
15819;DHT22;8010;53.986;12.106;2023-02-28T12:42:33;11.00;99.90
15819;DHT22;8010;53.986;12.106;2023-02-28T12:45:08;10.80;99.90
15819;DHT22;8010;53.986;12.106;2023-02-28T12:47:38;11.10;99.90
15819;DHT22;8010;53.986;12.106;2023-02-28T12:50:08;11.50;99.90
15819;DHT22;8010;53.986;12.106;2023-02-28T13:09:17;12.50;99.90
15819;DHT22;8010;53.986;12.106;2023-02-28T13:11:48;12.80;99.90
15819;DHT22;8010;53.986;12.106;2023-02-28T13:14:34;13.00;99.90
15819;DHT22;8010;53.986;12.106;2023-02-28T13:19:45;13.20;99.90
15819;DHT22;8010;53.986;12.106;2023-02-28T13:22:42;13.20;99.90
15819;DHT22;8010;53.986;12.106;2023-02-28T13:27:48;12.60;99.90
15819;DHT22;8010;53.986;12.106;2023-02-28T13:36:11;13.50;99.90
15819;DHT22;8010;53.986;12.106;2023-02-28T13:38:49;13.70;99.90
15819;DHT22;8010;53.986;12.106;2023-02-28T13:44:13;13.60;99.90
15819;DHT22;8010;53.986;12.106;2023-02-28T14:03:18;13.20;99.90
15819;DHT22;8010;53.986;12.106;2023-02-28T14:06:18;13.30;99.90
15819;DHT22;8010;53.986;12.106;2023-02-28T14:08:55;13.50;99.90
15819;DHT22;8010;53.986;12.106;2023-02-28T14:11:36;13.60;99.90
15819;DHT22;8010;53.986;12.106;2023-02-28T14:14:03;13.70;99.90
15819;DHT22;8010;53.986;12.106;2023-02-28T14:16:43;13.70;99.90
15819;DHT22;8010;53.986;12.106;2023-02-28T14:19:27;14.00;99.90
15819;DHT22;8010;53.986;12.106;2023-02-28T14:38:05;13.80;99.90
15819;DHT22;8010;53.986;12.106;2023-02-28T14:40:35;14.00;99.90
15819;DHT22;8010;53.986;12.106;2023-02-28T14:43:05;14.10;99.90
15819;DHT22;8010;53.986;12.106;2023-02-28T14:45:33;14.00;99.90
15819;DHT22;8010;53.986;12.106;2023-02-28T14:48:00;13.70;99.90
15819;DHT22;8010;53.986;12.106;2023-02-28T14:50:31;13.60;99.90
15819;DHT22;8010;53.986;12.106;2023-02-28T14:52:57;13.40;99.90
15819;DHT22;8010;53.986;12.106;2023-02-28T14:55:27;13.10;99.90
15819;DHT22;8010;53.986;12.106;2023-02-28T14:57:55;13.20;99.90
15819;DHT22;8010;53.986;12.106;2023-02-28T15:00:28;13.40;99.90
15819;DHT22;8010;53.986;12.106;2023-02-28T15:02:55;13.60;99.90
15819;DHT22;8010;53.986;12.106;2023-02-28T15:08:02;13.80;99.90
15819;DHT22;8010;53.986;12.106;2023-02-28T15:10:28;13.90;99.90
15819;DHT22;8010;53.986;12.106;2023-02-28T15:12:59;14.10;99.90
15819;DHT22;8010;53.986;12.106;2023-02-28T15:15:50;14.30;99.90
15819;DHT22;8010;53.986;12.106;2023-02-28T15:18:31;14.40;99.90
15819;DHT22;8010;53.986;12.106;2023-02-28T15:21:20;14.10;99.90
15819;DHT22;8010;53.986;12.106;2023-02-28T15:23:55;14.10;99.90
15819;DHT22;8010;53.986;12.106;2023-02-28T15:26:30;14.10;99.90
15819;DHT22;8010;53.986;12.106;2023-02-28T15:29:04;14.00;99.90
15819;DHT22;8010;53.986;12.106;2023-02-28T15:32:16;13.70;99.90
15819;DHT22;8010;53.986;12.106;2023-02-28T15:34:38;13.70;99.90
15819;DHT22;8010;53.986;12.106;2023-02-28T15:40:26;13.60;99.90
15819;DHT22;8010;53.986;12.106;2023-02-28T15:43:18;13.70;99.90
15819;DHT22;8010;53.986;12.106;2023-02-28T15:48:24;13.60;99.90
15819;DHT22;8010;53.986;12.106;2023-02-28T15:50:57;13.60;99.90
15819;DHT22;8010;53.986;12.106;2023-02-28T15:53:33;13.50;99.90
15819;DHT22;8010;53.986;12.106;2023-02-28T15:56:28;13.50;99.90
15819;DHT22;8010;53.986;12.106;2023-02-28T15:59:03;13.40;99.90
15819;DHT22;8010;53.986;12.106;2023-02-28T16:01:34;13.30;99.90
15819;DHT22;8010;53.986;12.106;2023-02-28T16:04:03;13.40;99.90
15819;DHT22;8010;53.986;12.106;2023-02-28T16:06:38;13.30;99.90
15819;DHT22;8010;53.986;12.106;2023-02-28T16:09:07;13.20;99.90
15819;DHT22;8010;53.986;12.106;2023-02-28T16:11:37;13.10;99.90
15819;DHT22;8010;53.986;12.106;2023-02-28T16:14:03;12.80;99.90
15819;DHT22;8010;53.986;12.106;2023-02-28T16:16:28;12.60;99.90
15819;DHT22;8010;53.986;12.106;2023-02-28T16:18:55;12.30;99.90
15819;DHT22;8010;53.986;12.106;2023-02-28T16:21:21;12.10;99.90
15819;DHT22;8010;53.986;12.106;2023-02-28T16:23:47;11.90;99.90
15819;DHT22;8010;53.986;12.106;2023-02-28T16:26:19;11.70;99.90
15819;DHT22;8010;53.986;12.106;2023-02-28T16:28:46;11.50;99.90
15819;DHT22;8010;53.986;12.106;2023-02-28T16:31:12;11.40;99.90
15819;DHT22;8010;53.986;12.106;2023-02-28T16:33:42;10.80;99.90
15819;DHT22;8010;53.986;12.106;2023-02-28T16:36:20;10.50;99.90
15819;DHT22;8010;53.986;12.106;2023-02-28T16:38:46;10.20;99.90
15819;DHT22;8010;53.986;12.106;2023-02-28T16:41:14;9.90;99.90
15819;DHT22;8010;53.986;12.106;2023-02-28T16:43:45;9.50;99.90
15819;DHT22;8010;53.986;12.106;2023-02-28T16:46:11;9.30;99.90
15819;DHT22;8010;53.986;12.106;2023-02-28T16:48:38;8.70;99.90
15819;DHT22;8010;53.986;12.106;2023-02-28T16:51:04;8.40;99.90
15819;DHT22;8010;53.986;12.106;2023-02-28T16:53:30;8.20;99.90
15819;DHT22;8010;53.986;12.106;2023-02-28T16:55:56;7.90;99.90
15819;DHT22;8010;53.986;12.106;2023-02-28T16:58:21;7.70;99.90
15819;DHT22;8010;53.986;12.106;2023-02-28T17:00:50;7.40;99.90
15819;DHT22;8010;53.986;12.106;2023-02-28T17:03:22;7.20;99.90
15819;DHT22;8010;53.986;12.106;2023-02-28T17:05:48;7.00;99.90
15819;DHT22;8010;53.986;12.106;2023-02-28T17:08:13;6.80;99.90
15819;DHT22;8010;53.986;12.106;2023-02-28T17:10:39;6.70;99.90
15819;DHT22;8010;53.986;12.106;2023-02-28T17:13:04;6.60;99.90
15819;DHT22;8010;53.986;12.106;2023-02-28T17:15:33;6.50;99.90
15819;DHT22;8010;53.986;12.106;2023-02-28T17:17:58;6.40;99.90
15819;DHT22;8010;53.986;12.106;2023-02-28T17:20:24;6.30;99.90
15819;DHT22;8010;53.986;12.106;2023-02-28T17:22:54;6.20;99.90
15819;DHT22;8010;53.986;12.106;2023-02-28T17:25:20;6.10;99.90
15819;DHT22;8010;53.986;12.106;2023-02-28T17:27:46;6.00;99.90
15819;DHT22;8010;53.986;12.106;2023-02-28T17:30:18;5.90;99.90
15819;DHT22;8010;53.986;12.106;2023-02-28T17:32:44;5.90;99.90
15819;DHT22;8010;53.986;12.106;2023-02-28T17:35:10;5.80;99.90
15819;DHT22;8010;53.986;12.106;2023-02-28T17:37:35;5.80;99.90
15819;DHT22;8010;53.986;12.106;2023-02-28T17:40:02;5.70;99.90
15819;DHT22;8010;53.986;12.106;2023-02-28T17:42:27;5.60;99.90
15819;DHT22;8010;53.986;12.106;2023-02-28T17:44:53;5.40;99.90
15819;DHT22;8010;53.986;12.106;2023-02-28T17:47:18;5.30;99.90
15819;DHT22;8010;53.986;12.106;2023-02-28T17:49:44;5.20;99.90
15819;DHT22;8010;53.986;12.106;2023-02-28T17:52:10;5.20;99.90
15819;DHT22;8010;53.986;12.106;2023-02-28T17:54:35;5.10;99.90
15819;DHT22;8010;53.986;12.106;2023-02-28T17:57:01;4.90;99.90
15819;DHT22;8010;53.986;12.106;2023-02-28T17:59:26;4.80;99.90